sensor_id;sensor_type;location;lat;lon;timestamp;P1;durP1;ratioP1;P2;durP2;ratioP2
14900;SDS011;7542;49.078;9.194;2023-03-11T15:24:47;1.65;;;0.88;;
14900;SDS011;7542;49.078;9.194;2023-03-11T15:25:46;0.80;;;0.80;;
14900;SDS011;7542;49.078;9.194;2023-03-11T15:28:17;0.82;;;0.82;;
14900;SDS011;7542;49.078;9.194;2023-03-11T15:29:28;1.20;;;1.02;;
14900;SDS011;7542;49.078;9.194;2023-03-11T15:30:31;1.13;;;0.90;;
14900;SDS011;7542;49.078;9.194;2023-03-11T15:31:35;0.97;;;0.80;;
14900;SDS011;7542;49.078;9.194;2023-03-11T15:32:39;0.80;;;0.70;;
14900;SDS011;7542;49.078;9.194;2023-03-11T15:33:43;1.13;;;0.97;;
14900;SDS011;7542;49.078;9.194;2023-03-11T15:34:46;0.93;;;0.90;;
14900;SDS011;7542;49.078;9.194;2023-03-11T15:36:26;0.90;;;0.90;;
14900;SDS011;7542;49.078;9.194;2023-03-11T15:37:35;1.43;;;0.80;;
14900;SDS011;7542;49.078;9.194;2023-03-11T15:38:39;3.97;;;1.10;;
14900;SDS011;7542;49.078;9.194;2023-03-11T15:39:42;1.10;;;0.87;;
14900;SDS011;7542;49.078;9.194;2023-03-11T15:40:53;1.90;;;1.03;;
14900;SDS011;7542;49.078;9.194;2023-03-11T15:42:02;1.77;;;1.20;;
14900;SDS011;7542;49.078;9.194;2023-03-11T15:43:27;0.83;;;0.83;;
14900;SDS011;7542;49.078;9.194;2023-03-11T15:44:36;2.23;;;1.03;;
14900;SDS011;7542;49.078;9.194;2023-03-11T15:46:00;1.60;;;1.07;;
14900;SDS011;7542;49.078;9.194;2023-03-11T15:47:03;1.00;;;0.90;;
14900;SDS011;7542;49.078;9.194;2023-03-11T15:48:07;1.80;;;0.90;;
14900;SDS011;7542;49.078;9.194;2023-03-11T15:49:11;1.07;;;0.80;;
14900;SDS011;7542;49.078;9.194;2023-03-11T15:51:28;1.37;;;0.90;;
14900;SDS011;7542;49.078;9.194;2023-03-11T15:52:30;1.33;;;0.80;;
14900;SDS011;7542;49.078;9.194;2023-03-11T15:53:32;0.97;;;0.93;;
14900;SDS011;7542;49.078;9.194;2023-03-11T15:54:34;1.17;;;0.90;;
14900;SDS011;7542;49.078;9.194;2023-03-11T15:55:36;1.00;;;0.90;;
14900;SDS011;7542;49.078;9.194;2023-03-11T15:56:39;1.00;;;0.80;;
14900;SDS011;7542;49.078;9.194;2023-03-11T15:57:42;0.80;;;0.80;;
14900;SDS011;7542;49.078;9.194;2023-03-11T15:58:45;0.97;;;0.93;;
14900;SDS011;7542;49.078;9.194;2023-03-11T15:59:47;1.73;;;1.00;;
14900;SDS011;7542;49.078;9.194;2023-03-11T16:00:52;0.77;;;0.73;;
14900;SDS011;7542;49.078;9.194;2023-03-11T16:01:57;0.70;;;0.70;;
14900;SDS011;7542;49.078;9.194;2023-03-11T16:02:59;1.17;;;1.07;;
14900;SDS011;7542;49.078;9.194;2023-03-11T16:04:01;2.70;;;0.87;;
14900;SDS011;7542;49.078;9.194;2023-03-11T16:05:05;0.80;;;0.80;;
14900;SDS011;7542;49.078;9.194;2023-03-11T16:06:14;1.13;;;0.93;;
14900;SDS011;7542;49.078;9.194;2023-03-11T16:07:16;0.80;;;0.80;;
14900;SDS011;7542;49.078;9.194;2023-03-11T16:08:29;0.70;;;0.70;;
14900;SDS011;7542;49.078;9.194;2023-03-11T16:09:31;1.00;;;0.90;;
14900;SDS011;7542;49.078;9.194;2023-03-11T16:10:34;1.07;;;0.97;;
14900;SDS011;7542;49.078;9.194;2023-03-11T16:11:37;1.33;;;0.93;;
14900;SDS011;7542;49.078;9.194;2023-03-11T16:12:40;1.13;;;0.73;;
14900;SDS011;7542;49.078;9.194;2023-03-11T16:13:42;0.80;;;0.80;;
14900;SDS011;7542;49.078;9.194;2023-03-11T16:14:45;1.03;;;0.87;;
14900;SDS011;7542;49.078;9.194;2023-03-11T16:15:48;0.73;;;0.73;;
14900;SDS011;7542;49.078;9.194;2023-03-11T16:16:50;0.90;;;0.87;;
14900;SDS011;7542;49.078;9.194;2023-03-11T16:17:51;1.50;;;0.83;;
14900;SDS011;7542;49.078;9.194;2023-03-11T16:18:57;1.47;;;1.00;;
14900;SDS011;7542;49.078;9.194;2023-03-11T16:19:58;1.00;;;0.80;;
14900;SDS011;7542;49.078;9.194;2023-03-11T16:21:01;2.70;;;0.90;;
14900;SDS011;7542;49.078;9.194;2023-03-11T16:22:18;1.23;;;1.00;;
14900;SDS011;7542;49.078;9.194;2023-03-11T16:23:32;2.93;;;1.13;;
14900;SDS011;7542;49.078;9.194;2023-03-11T16:24:51;1.83;;;1.10;;
14900;SDS011;7542;49.078;9.194;2023-03-11T16:25:56;1.10;;;1.10;;
14900;SDS011;7542;49.078;9.194;2023-03-11T16:27:02;1.10;;;0.93;;
14900;SDS011;7542;49.078;9.194;2023-03-11T16:28:04;1.50;;;1.25;;
14900;SDS011;7542;49.078;9.194;2023-03-11T16:29:07;2.53;;;1.40;;
14900;SDS011;7542;49.078;9.194;2023-03-11T16:30:20;1.57;;;1.30;;
14900;SDS011;7542;49.078;9.194;2023-03-11T16:31:23;3.40;;;1.50;;
14900;SDS011;7542;49.078;9.194;2023-03-11T16:32:25;1.40;;;1.40;;
14900;SDS011;7542;49.078;9.194;2023-03-11T16:33:27;2.80;;;1.40;;
14900;SDS011;7542;49.078;9.194;2023-03-11T16:34:29;2.53;;;1.50;;
14900;SDS011;7542;49.078;9.194;2023-03-11T16:35:31;1.20;;;1.20;;
14900;SDS011;7542;49.078;9.194;2023-03-11T16:36:34;1.50;;;1.40;;
14900;SDS011;7542;49.078;9.194;2023-03-11T16:37:36;2.13;;;1.30;;
14900;SDS011;7542;49.078;9.194;2023-03-11T16:38:46;4.83;;;1.40;;
14900;SDS011;7542;49.078;9.194;2023-03-11T16:39:50;3.30;;;1.70;;
14900;SDS011;7542;49.078;9.194;2023-03-11T16:42:00;3.70;;;1.63;;
14900;SDS011;7542;49.078;9.194;2023-03-11T16:44:10;1.60;;;1.50;;
14900;SDS011;7542;49.078;9.194;2023-03-11T16:45:13;1.30;;;1.30;;
14900;SDS011;7542;49.078;9.194;2023-03-11T16:46:17;1.67;;;1.30;;
14900;SDS011;7542;49.078;9.194;2023-03-11T16:47:19;1.63;;;1.03;;
14900;SDS011;7542;49.078;9.194;2023-03-11T16:48:21;1.47;;;1.37;;
14900;SDS011;7542;49.078;9.194;2023-03-11T16:49:24;1.70;;;1.60;;
14900;SDS011;7542;49.078;9.194;2023-03-11T16:50:26;1.97;;;1.50;;
14900;SDS011;7542;49.078;9.194;2023-03-11T16:51:28;1.77;;;1.40;;
14900;SDS011;7542;49.078;9.194;2023-03-11T16:52:30;1.27;;;1.17;;
14900;SDS011;7542;49.078;9.194;2023-03-11T16:53:32;1.40;;;1.33;;
14900;SDS011;7542;49.078;9.194;2023-03-11T16:54:34;3.20;;;1.43;;
14900;SDS011;7542;49.078;9.194;2023-03-11T16:55:36;2.87;;;1.37;;
14900;SDS011;7542;49.078;9.194;2023-03-11T16:56:38;1.40;;;1.30;;
14900;SDS011;7542;49.078;9.194;2023-03-11T16:57:42;2.87;;;1.30;;
14900;SDS011;7542;49.078;9.194;2023-03-11T16:58:43;3.03;;;1.33;;
14900;SDS011;7542;49.078;9.194;2023-03-11T16:59:48;2.07;;;1.20;;
14900;SDS011;7542;49.078;9.194;2023-03-11T17:00:50;3.23;;;1.57;;
14900;SDS011;7542;49.078;9.194;2023-03-11T17:01:52;1.57;;;1.40;;
14900;SDS011;7542;49.078;9.194;2023-03-11T17:02:54;2.30;;;1.57;;
14900;SDS011;7542;49.078;9.194;2023-03-11T17:03:56;1.37;;;1.20;;
14900;SDS011;7542;49.078;9.194;2023-03-11T17:04:58;2.47;;;1.33;;
14900;SDS011;7542;49.078;9.194;2023-03-11T17:06:00;1.70;;;1.33;;
14900;SDS011;7542;49.078;9.194;2023-03-11T17:07:04;2.30;;;1.10;;
14900;SDS011;7542;49.078;9.194;2023-03-11T17:08:07;1.53;;;1.30;;
14900;SDS011;7542;49.078;9.194;2023-03-11T17:09:11;2.47;;;1.30;;
14900;SDS011;7542;49.078;9.194;2023-03-11T17:10:12;2.50;;;1.20;;
14900;SDS011;7542;49.078;9.194;2023-03-11T17:11:15;3.37;;;1.30;;
14900;SDS011;7542;49.078;9.194;2023-03-11T17:12:20;1.67;;;1.57;;
14900;SDS011;7542;49.078;9.194;2023-03-11T17:13:23;1.40;;;1.30;;
14900;SDS011;7542;49.078;9.194;2023-03-11T17:14:25;2.73;;;1.47;;
14900;SDS011;7542;49.078;9.194;2023-03-11T17:15:27;1.13;;;1.13;;
14900;SDS011;7542;49.078;9.194;2023-03-11T17:16:28;1.30;;;1.20;;
14900;SDS011;7542;49.078;9.194;2023-03-11T17:17:33;1.73;;;1.23;;
14900;SDS011;7542;49.078;9.194;2023-03-11T17:18:36;1.63;;;1.20;;
14900;SDS011;7542;49.078;9.194;2023-03-11T17:19:38;1.63;;;1.30;;
14900;SDS011;7542;49.078;9.194;2023-03-11T17:20:40;1.40;;;1.30;;
14900;SDS011;7542;49.078;9.194;2023-03-11T17:21:43;1.27;;;1.17;;
14900;SDS011;7542;49.078;9.194;2023-03-11T17:22:45;1.20;;;1.10;;
14900;SDS011;7542;49.078;9.194;2023-03-11T17:23:47;1.80;;;1.30;;
14900;SDS011;7542;49.078;9.194;2023-03-11T17:24:49;1.40;;;1.30;;
14900;SDS011;7542;49.078;9.194;2023-03-11T17:25:51;3.10;;;1.40;;
14900;SDS011;7542;49.078;9.194;2023-03-11T17:26:52;2.40;;;1.10;;
14900;SDS011;7542;49.078;9.194;2023-03-11T17:27:54;2.07;;;1.23;;
14900;SDS011;7542;49.078;9.194;2023-03-11T17:28:57;1.07;;;1.00;;
14900;SDS011;7542;49.078;9.194;2023-03-11T17:30:00;1.83;;;1.00;;
14900;SDS011;7542;49.078;9.194;2023-03-11T17:31:04;1.07;;;1.03;;
14900;SDS011;7542;49.078;9.194;2023-03-11T17:32:12;1.30;;;1.20;;
14900;SDS011;7542;49.078;9.194;2023-03-11T17:33:17;1.87;;;1.23;;
14900;SDS011;7542;49.078;9.194;2023-03-11T17:34:19;1.30;;;1.20;;
14900;SDS011;7542;49.078;9.194;2023-03-11T17:35:22;1.43;;;1.33;;
14900;SDS011;7542;49.078;9.194;2023-03-11T17:36:24;1.23;;;1.13;;
14900;SDS011;7542;49.078;9.194;2023-03-11T17:37:26;1.10;;;1.10;;
14900;SDS011;7542;49.078;9.194;2023-03-11T17:38:28;1.50;;;1.40;;
14900;SDS011;7542;49.078;9.194;2023-03-11T17:39:30;1.13;;;1.03;;
14900;SDS011;7542;49.078;9.194;2023-03-11T17:40:32;1.97;;;1.40;;
14900;SDS011;7542;49.078;9.194;2023-03-11T17:41:34;2.13;;;1.27;;
14900;SDS011;7542;49.078;9.194;2023-03-11T17:42:37;1.80;;;1.30;;
14900;SDS011;7542;49.078;9.194;2023-03-11T17:43:39;1.10;;;1.10;;
14900;SDS011;7542;49.078;9.194;2023-03-11T17:44:43;1.53;;;1.20;;
14900;SDS011;7542;49.078;9.194;2023-03-11T17:45:52;2.23;;;1.10;;
14900;SDS011;7542;49.078;9.194;2023-03-11T17:46:54;1.60;;;1.13;;
14900;SDS011;7542;49.078;9.194;2023-03-11T17:47:56;1.83;;;1.30;;
14900;SDS011;7542;49.078;9.194;2023-03-11T17:48:57;4.20;;;1.37;;
14900;SDS011;7542;49.078;9.194;2023-03-11T17:50:00;1.15;;;1.00;;
14900;SDS011;7542;49.078;9.194;2023-03-11T17:51:03;2.40;;;1.37;;
14900;SDS011;7542;49.078;9.194;2023-03-11T17:52:10;1.17;;;1.17;;
14900;SDS011;7542;49.078;9.194;2023-03-11T17:53:13;1.40;;;1.30;;
14900;SDS011;7542;49.078;9.194;2023-03-11T17:54:14;1.33;;;1.23;;
14900;SDS011;7542;49.078;9.194;2023-03-11T17:55:16;2.57;;;1.50;;
14900;SDS011;7542;49.078;9.194;2023-03-11T17:56:19;2.33;;;1.60;;
14900;SDS011;7542;49.078;9.194;2023-03-11T17:57:22;2.43;;;1.67;;
14900;SDS011;7542;49.078;9.194;2023-03-11T17:58:24;4.30;;;2.10;;
14900;SDS011;7542;49.078;9.194;2023-03-11T17:59:26;2.50;;;2.33;;
14900;SDS011;7542;49.078;9.194;2023-03-11T18:00:28;3.47;;;3.17;;
14900;SDS011;7542;49.078;9.194;2023-03-11T18:01:29;3.93;;;3.47;;
14900;SDS011;7542;49.078;9.194;2023-03-11T18:02:32;4.70;;;4.30;;
14900;SDS011;7542;49.078;9.194;2023-03-11T18:03:34;5.50;;;4.53;;
14900;SDS011;7542;49.078;9.194;2023-03-11T18:04:36;5.93;;;5.43;;
14900;SDS011;7542;49.078;9.194;2023-03-11T18:05:39;6.90;;;6.20;;
14900;SDS011;7542;49.078;9.194;2023-03-11T18:06:41;7.57;;;6.80;;
14900;SDS011;7542;49.078;9.194;2023-03-11T18:07:43;8.10;;;7.37;;
14900;SDS011;7542;49.078;9.194;2023-03-11T18:08:45;9.73;;;8.40;;
14900;SDS011;7542;49.078;9.194;2023-03-11T18:09:49;10.93;;;9.83;;
14900;SDS011;7542;49.078;9.194;2023-03-11T18:10:58;10.87;;;9.77;;
14900;SDS011;7542;49.078;9.194;2023-03-11T18:12:03;12.40;;;11.17;;
14900;SDS011;7542;49.078;9.194;2023-03-11T18:13:06;14.23;;;12.60;;
14900;SDS011;7542;49.078;9.194;2023-03-11T18:14:08;14.63;;;13.13;;
14900;SDS011;7542;49.078;9.194;2023-03-11T18:15:11;15.33;;;13.73;;
14900;SDS011;7542;49.078;9.194;2023-03-11T18:16:20;16.73;;;15.03;;
14900;SDS011;7542;49.078;9.194;2023-03-11T18:17:29;17.33;;;14.63;;
14900;SDS011;7542;49.078;9.194;2023-03-11T18:18:31;17.63;;;15.20;;
14900;SDS011;7542;49.078;9.194;2023-03-11T18:19:34;17.20;;;15.47;;
14900;SDS011;7542;49.078;9.194;2023-03-11T18:20:36;17.57;;;15.30;;
14900;SDS011;7542;49.078;9.194;2023-03-11T18:21:38;19.80;;;16.60;;
14900;SDS011;7542;49.078;9.194;2023-03-11T18:22:41;18.93;;;16.83;;
14900;SDS011;7542;49.078;9.194;2023-03-11T18:23:47;18.53;;;16.13;;
14900;SDS011;7542;49.078;9.194;2023-03-11T18:24:52;19.43;;;17.27;;
14900;SDS011;7542;49.078;9.194;2023-03-11T18:25:54;21.30;;;17.90;;
14900;SDS011;7542;49.078;9.194;2023-03-11T18:26:56;18.93;;;16.93;;
14900;SDS011;7542;49.078;9.194;2023-03-11T18:27:58;19.10;;;17.00;;
14900;SDS011;7542;49.078;9.194;2023-03-11T18:29:00;20.47;;;17.40;;
14900;SDS011;7542;49.078;9.194;2023-03-11T18:30:05;19.87;;;17.77;;
14900;SDS011;7542;49.078;9.194;2023-03-11T18:31:12;20.10;;;17.77;;
14900;SDS011;7542;49.078;9.194;2023-03-11T18:32:18;20.77;;;17.37;;
14900;SDS011;7542;49.078;9.194;2023-03-11T18:33:22;19.70;;;17.60;;
14900;SDS011;7542;49.078;9.194;2023-03-11T18:34:25;20.60;;;17.80;;
14900;SDS011;7542;49.078;9.194;2023-03-11T18:35:27;19.70;;;16.93;;
14900;SDS011;7542;49.078;9.194;2023-03-11T18:36:33;19.83;;;17.37;;
14900;SDS011;7542;49.078;9.194;2023-03-11T18:37:37;20.47;;;17.47;;
14900;SDS011;7542;49.078;9.194;2023-03-11T18:38:40;18.23;;;16.03;;
14900;SDS011;7542;49.078;9.194;2023-03-11T18:39:43;21.13;;;17.53;;
14900;SDS011;7542;49.078;9.194;2023-03-11T18:40:44;21.33;;;16.13;;
14900;SDS011;7542;49.078;9.194;2023-03-11T18:41:46;20.00;;;16.70;;
14900;SDS011;7542;49.078;9.194;2023-03-11T18:42:50;19.80;;;17.00;;
14900;SDS011;7542;49.078;9.194;2023-03-11T18:43:53;17.90;;;15.10;;
14900;SDS011;7542;49.078;9.194;2023-03-11T18:44:59;18.93;;;15.27;;
14900;SDS011;7542;49.078;9.194;2023-03-11T18:46:05;16.20;;;14.43;;
14900;SDS011;7542;49.078;9.194;2023-03-11T18:47:13;16.93;;;14.83;;
14900;SDS011;7542;49.078;9.194;2023-03-11T18:48:15;15.13;;;13.53;;
14900;SDS011;7542;49.078;9.194;2023-03-11T18:49:17;14.17;;;12.53;;
14900;SDS011;7542;49.078;9.194;2023-03-11T18:50:19;16.97;;;12.80;;
14900;SDS011;7542;49.078;9.194;2023-03-11T18:51:21;16.23;;;13.50;;
14900;SDS011;7542;49.078;9.194;2023-03-11T18:52:24;13.00;;;11.60;;
14900;SDS011;7542;49.078;9.194;2023-03-11T18:53:26;13.70;;;11.50;;
14900;SDS011;7542;49.078;9.194;2023-03-11T18:54:28;12.77;;;11.45;;
14900;SDS011;7542;49.078;9.194;2023-03-11T18:55:32;12.37;;;11.07;;
14900;SDS011;7542;49.078;9.194;2023-03-11T18:56:35;12.30;;;10.30;;
14900;SDS011;7542;49.078;9.194;2023-03-11T18:57:37;10.63;;;9.53;;
14900;SDS011;7542;49.078;9.194;2023-03-11T18:58:42;10.30;;;9.30;;
14900;SDS011;7542;49.078;9.194;2023-03-11T18:59:45;11.25;;;10.07;;
14900;SDS011;7542;49.078;9.194;2023-03-11T19:00:50;9.53;;;8.50;;
14900;SDS011;7542;49.078;9.194;2023-03-11T19:01:52;10.10;;;8.60;;
14900;SDS011;7542;49.078;9.194;2023-03-11T19:02:54;11.40;;;8.10;;
14900;SDS011;7542;49.078;9.194;2023-03-11T19:03:57;9.00;;;7.80;;
14900;SDS011;7542;49.078;9.194;2023-03-11T19:05:00;8.13;;;6.93;;
14900;SDS011;7542;49.078;9.194;2023-03-11T19:06:02;8.80;;;7.00;;
14900;SDS011;7542;49.078;9.194;2023-03-11T19:07:04;7.40;;;6.73;;
14900;SDS011;7542;49.078;9.194;2023-03-11T19:08:06;7.27;;;6.57;;
14900;SDS011;7542;49.078;9.194;2023-03-11T19:09:08;8.30;;;6.10;;
14900;SDS011;7542;49.078;9.194;2023-03-11T19:10:11;6.73;;;6.13;;
14900;SDS011;7542;49.078;9.194;2023-03-11T19:11:19;6.57;;;5.97;;
14900;SDS011;7542;49.078;9.194;2023-03-11T19:12:23;6.90;;;6.30;;
14900;SDS011;7542;49.078;9.194;2023-03-11T19:13:29;6.03;;;5.43;;
14900;SDS011;7542;49.078;9.194;2023-03-11T19:14:46;5.83;;;5.37;;
14900;SDS011;7542;49.078;9.194;2023-03-11T19:15:48;5.20;;;4.80;;
14900;SDS011;7542;49.078;9.194;2023-03-11T19:16:50;5.40;;;4.87;;
14900;SDS011;7542;49.078;9.194;2023-03-11T19:17:52;5.63;;;4.63;;
14900;SDS011;7542;49.078;9.194;2023-03-11T19:19:06;4.37;;;4.07;;
14900;SDS011;7542;49.078;9.194;2023-03-11T19:20:11;3.87;;;3.67;;
14900;SDS011;7542;49.078;9.194;2023-03-11T19:21:14;4.60;;;4.20;;
14900;SDS011;7542;49.078;9.194;2023-03-11T19:22:16;4.33;;;4.00;;
14900;SDS011;7542;49.078;9.194;2023-03-11T19:23:18;4.63;;;3.80;;
14900;SDS011;7542;49.078;9.194;2023-03-11T19:24:20;4.30;;;4.10;;
14900;SDS011;7542;49.078;9.194;2023-03-11T19:25:22;4.30;;;3.90;;
14900;SDS011;7542;49.078;9.194;2023-03-11T19:26:28;4.13;;;3.83;;
14900;SDS011;7542;49.078;9.194;2023-03-11T19:27:44;4.07;;;3.77;;
14900;SDS011;7542;49.078;9.194;2023-03-11T19:28:46;4.10;;;3.80;;
14900;SDS011;7542;49.078;9.194;2023-03-11T19:29:49;4.30;;;3.90;;
14900;SDS011;7542;49.078;9.194;2023-03-11T19:30:54;3.90;;;3.60;;
14900;SDS011;7542;49.078;9.194;2023-03-11T19:31:59;4.13;;;3.70;;
14900;SDS011;7542;49.078;9.194;2023-03-11T19:33:03;3.90;;;3.60;;
14900;SDS011;7542;49.078;9.194;2023-03-11T19:34:05;3.70;;;3.40;;
14900;SDS011;7542;49.078;9.194;2023-03-11T19:35:07;3.40;;;3.20;;
14900;SDS011;7542;49.078;9.194;2023-03-11T19:36:13;3.83;;;3.57;;
14900;SDS011;7542;49.078;9.194;2023-03-11T19:37:15;3.53;;;3.23;;
14900;SDS011;7542;49.078;9.194;2023-03-11T19:38:18;3.73;;;3.43;;
14900;SDS011;7542;49.078;9.194;2023-03-11T19:39:21;3.60;;;3.40;;
14900;SDS011;7542;49.078;9.194;2023-03-11T19:40:23;3.57;;;3.37;;
14900;SDS011;7542;49.078;9.194;2023-03-11T19:41:29;3.30;;;3.10;;
14900;SDS011;7542;49.078;9.194;2023-03-11T19:42:32;3.80;;;3.50;;
14900;SDS011;7542;49.078;9.194;2023-03-11T19:43:34;3.50;;;3.30;;
14900;SDS011;7542;49.078;9.194;2023-03-11T19:44:37;3.40;;;3.17;;
14900;SDS011;7542;49.078;9.194;2023-03-11T19:45:39;3.83;;;3.47;;
14900;SDS011;7542;49.078;9.194;2023-03-11T19:46:40;3.93;;;3.40;;
14900;SDS011;7542;49.078;9.194;2023-03-11T19:47:42;2.93;;;2.80;;
14900;SDS011;7542;49.078;9.194;2023-03-11T19:48:46;2.90;;;2.70;;
14900;SDS011;7542;49.078;9.194;2023-03-11T19:49:48;3.13;;;2.93;;
14900;SDS011;7542;49.078;9.194;2023-03-11T19:50:50;2.67;;;2.57;;
14900;SDS011;7542;49.078;9.194;2023-03-11T19:51:53;3.20;;;2.90;;
14900;SDS011;7542;49.078;9.194;2023-03-11T19:52:56;2.73;;;2.63;;
14900;SDS011;7542;49.078;9.194;2023-03-11T19:53:58;2.90;;;2.70;;
14900;SDS011;7542;49.078;9.194;2023-03-11T19:55:00;3.20;;;3.00;;
14900;SDS011;7542;49.078;9.194;2023-03-11T19:56:02;3.50;;;3.20;;
14900;SDS011;7542;49.078;9.194;2023-03-11T19:57:04;2.83;;;2.63;;
14900;SDS011;7542;49.078;9.194;2023-03-11T19:58:06;2.93;;;2.80;;
14900;SDS011;7542;49.078;9.194;2023-03-11T19:59:08;2.90;;;2.80;;
14900;SDS011;7542;49.078;9.194;2023-03-11T20:00:11;3.13;;;2.90;;
14900;SDS011;7542;49.078;9.194;2023-03-11T20:01:17;3.27;;;2.83;;
14900;SDS011;7542;49.078;9.194;2023-03-11T20:02:21;2.90;;;2.70;;
14900;SDS011;7542;49.078;9.194;2023-03-11T20:03:23;3.10;;;2.90;;
14900;SDS011;7542;49.078;9.194;2023-03-11T20:04:26;3.03;;;2.80;;
14900;SDS011;7542;49.078;9.194;2023-03-11T20:05:29;5.03;;;2.83;;
14900;SDS011;7542;49.078;9.194;2023-03-11T20:06:31;3.10;;;2.90;;
14900;SDS011;7542;49.078;9.194;2023-03-11T20:07:33;2.87;;;2.53;;
14900;SDS011;7542;49.078;9.194;2023-03-11T20:08:35;2.90;;;2.70;;
14900;SDS011;7542;49.078;9.194;2023-03-11T20:09:37;2.90;;;2.70;;
14900;SDS011;7542;49.078;9.194;2023-03-11T20:10:40;3.23;;;3.00;;
14900;SDS011;7542;49.078;9.194;2023-03-11T20:11:45;2.77;;;2.60;;
14900;SDS011;7542;49.078;9.194;2023-03-11T20:12:48;2.70;;;2.60;;
14900;SDS011;7542;49.078;9.194;2023-03-11T20:14:02;2.63;;;2.50;;
14900;SDS011;7542;49.078;9.194;2023-03-11T20:15:06;2.47;;;2.37;;
14900;SDS011;7542;49.078;9.194;2023-03-11T20:16:10;3.17;;;2.80;;
14900;SDS011;7542;49.078;9.194;2023-03-11T20:17:19;2.77;;;2.57;;
14900;SDS011;7542;49.078;9.194;2023-03-11T20:18:21;3.10;;;2.90;;
14900;SDS011;7542;49.078;9.194;2023-03-11T20:19:23;2.83;;;2.30;;
14900;SDS011;7542;49.078;9.194;2023-03-11T20:20:25;2.85;;;2.70;;
14900;SDS011;7542;49.078;9.194;2023-03-11T20:21:31;2.63;;;2.50;;
14900;SDS011;7542;49.078;9.194;2023-03-11T20:22:33;2.90;;;2.80;;
14900;SDS011;7542;49.078;9.194;2023-03-11T20:23:35;2.90;;;2.67;;
14900;SDS011;7542;49.078;9.194;2023-03-11T20:24:38;2.63;;;2.53;;
14900;SDS011;7542;49.078;9.194;2023-03-11T20:25:40;2.90;;;2.70;;
14900;SDS011;7542;49.078;9.194;2023-03-11T20:26:42;3.17;;;2.97;;
14900;SDS011;7542;49.078;9.194;2023-03-11T20:27:45;4.03;;;2.73;;
14900;SDS011;7542;49.078;9.194;2023-03-11T20:28:47;2.60;;;2.40;;
14900;SDS011;7542;49.078;9.194;2023-03-11T20:29:49;3.00;;;2.77;;
14900;SDS011;7542;49.078;9.194;2023-03-11T20:30:51;2.90;;;2.70;;
14900;SDS011;7542;49.078;9.194;2023-03-11T20:31:54;2.70;;;2.50;;
14900;SDS011;7542;49.078;9.194;2023-03-11T20:32:56;2.93;;;2.60;;
14900;SDS011;7542;49.078;9.194;2023-03-11T20:33:58;5.10;;;2.63;;
14900;SDS011;7542;49.078;9.194;2023-03-11T20:35:01;2.70;;;2.50;;
14900;SDS011;7542;49.078;9.194;2023-03-11T20:36:05;2.67;;;2.57;;
14900;SDS011;7542;49.078;9.194;2023-03-11T20:37:13;2.60;;;2.50;;
14900;SDS011;7542;49.078;9.194;2023-03-11T20:38:14;3.00;;;2.67;;
14900;SDS011;7542;49.078;9.194;2023-03-11T20:39:17;2.80;;;2.63;;
14900;SDS011;7542;49.078;9.194;2023-03-11T20:40:19;2.70;;;2.53;;
14900;SDS011;7542;49.078;9.194;2023-03-11T20:41:22;4.77;;;2.50;;
14900;SDS011;7542;49.078;9.194;2023-03-11T20:42:26;2.87;;;2.63;;
14900;SDS011;7542;49.078;9.194;2023-03-11T20:43:28;2.70;;;2.53;;
14900;SDS011;7542;49.078;9.194;2023-03-11T20:44:30;3.00;;;2.30;;
14900;SDS011;7542;49.078;9.194;2023-03-11T20:45:32;2.83;;;2.63;;
14900;SDS011;7542;49.078;9.194;2023-03-11T20:46:34;2.53;;;2.37;;
14900;SDS011;7542;49.078;9.194;2023-03-11T20:47:36;2.60;;;2.40;;
14900;SDS011;7542;49.078;9.194;2023-03-11T20:48:38;2.37;;;2.23;;
14900;SDS011;7542;49.078;9.194;2023-03-11T20:49:41;2.60;;;2.40;;
14900;SDS011;7542;49.078;9.194;2023-03-11T20:50:44;2.73;;;2.53;;
14900;SDS011;7542;49.078;9.194;2023-03-11T20:51:45;2.50;;;2.40;;
14900;SDS011;7542;49.078;9.194;2023-03-11T20:52:48;2.77;;;2.60;;
14900;SDS011;7542;49.078;9.194;2023-03-11T20:53:50;2.63;;;2.43;;
14900;SDS011;7542;49.078;9.194;2023-03-11T20:54:52;2.70;;;2.50;;
14900;SDS011;7542;49.078;9.194;2023-03-11T20:55:55;2.63;;;2.47;;
14900;SDS011;7542;49.078;9.194;2023-03-11T20:56:59;2.60;;;2.50;;
14900;SDS011;7542;49.078;9.194;2023-03-11T20:58:01;2.40;;;2.30;;
14900;SDS011;7542;49.078;9.194;2023-03-11T20:59:03;2.70;;;2.50;;
14900;SDS011;7542;49.078;9.194;2023-03-11T21:00:09;2.40;;;2.20;;
14900;SDS011;7542;49.078;9.194;2023-03-11T21:01:17;2.60;;;2.40;;
14900;SDS011;7542;49.078;9.194;2023-03-11T21:02:22;2.53;;;2.43;;
14900;SDS011;7542;49.078;9.194;2023-03-11T21:03:24;2.47;;;2.37;;
14900;SDS011;7542;49.078;9.194;2023-03-11T21:04:26;2.67;;;2.40;;
14900;SDS011;7542;49.078;9.194;2023-03-11T21:05:28;2.33;;;2.23;;
14900;SDS011;7542;49.078;9.194;2023-03-11T21:06:35;2.87;;;2.30;;
14900;SDS011;7542;49.078;9.194;2023-03-11T21:07:40;2.30;;;2.20;;
14900;SDS011;7542;49.078;9.194;2023-03-11T21:08:42;2.57;;;2.37;;
14900;SDS011;7542;49.078;9.194;2023-03-11T21:09:45;2.80;;;2.60;;
14900;SDS011;7542;49.078;9.194;2023-03-11T21:10:48;2.30;;;2.20;;
14900;SDS011;7542;49.078;9.194;2023-03-11T21:11:50;4.30;;;2.80;;
14900;SDS011;7542;49.078;9.194;2023-03-11T21:12:52;2.40;;;2.30;;
14900;SDS011;7542;49.078;9.194;2023-03-11T21:13:54;2.87;;;2.40;;
14900;SDS011;7542;49.078;9.194;2023-03-11T21:14:56;2.53;;;2.33;;
14900;SDS011;7542;49.078;9.194;2023-03-11T21:15:58;2.33;;;2.13;;
14900;SDS011;7542;49.078;9.194;2023-03-11T21:17:00;2.97;;;2.33;;
14900;SDS011;7542;49.078;9.194;2023-03-11T21:18:02;2.40;;;2.30;;
14900;SDS011;7542;49.078;9.194;2023-03-11T21:19:06;2.30;;;2.20;;
14900;SDS011;7542;49.078;9.194;2023-03-11T21:20:10;2.50;;;2.30;;
14900;SDS011;7542;49.078;9.194;2023-03-11T21:21:13;2.43;;;2.33;;
14900;SDS011;7542;49.078;9.194;2023-03-11T21:22:18;2.60;;;2.40;;
14900;SDS011;7542;49.078;9.194;2023-03-11T21:23:20;2.60;;;2.40;;
14900;SDS011;7542;49.078;9.194;2023-03-11T21:24:23;2.43;;;2.33;;
14900;SDS011;7542;49.078;9.194;2023-03-11T21:25:26;2.60;;;2.50;;
14900;SDS011;7542;49.078;9.194;2023-03-11T21:26:30;2.33;;;2.13;;
14900;SDS011;7542;49.078;9.194;2023-03-11T21:27:33;2.60;;;2.50;;
14900;SDS011;7542;49.078;9.194;2023-03-11T21:28:35;2.30;;;2.20;;
14900;SDS011;7542;49.078;9.194;2023-03-11T21:29:42;2.60;;;2.40;;
14900;SDS011;7542;49.078;9.194;2023-03-11T21:30:45;3.57;;;2.37;;
14900;SDS011;7542;49.078;9.194;2023-03-11T21:31:46;2.63;;;2.43;;
14900;SDS011;7542;49.078;9.194;2023-03-11T21:32:48;4.93;;;2.50;;
14900;SDS011;7542;49.078;9.194;2023-03-11T21:33:51;2.63;;;2.50;;
14900;SDS011;7542;49.078;9.194;2023-03-11T21:34:55;2.20;;;2.10;;
14900;SDS011;7542;49.078;9.194;2023-03-11T21:36:00;2.40;;;2.20;;
14900;SDS011;7542;49.078;9.194;2023-03-11T21:37:02;2.40;;;2.30;;
14900;SDS011;7542;49.078;9.194;2023-03-11T21:38:03;2.30;;;2.20;;
14900;SDS011;7542;49.078;9.194;2023-03-11T21:39:05;2.50;;;2.40;;
14900;SDS011;7542;49.078;9.194;2023-03-11T21:40:08;2.27;;;2.17;;
14900;SDS011;7542;49.078;9.194;2023-03-11T21:41:15;2.30;;;2.20;;
14900;SDS011;7542;49.078;9.194;2023-03-11T21:42:27;2.53;;;2.37;;
14900;SDS011;7542;49.078;9.194;2023-03-11T21:43:30;2.40;;;2.30;;
14900;SDS011;7542;49.078;9.194;2023-03-11T21:44:32;2.23;;;2.13;;
14900;SDS011;7542;49.078;9.194;2023-03-11T21:45:34;2.33;;;2.23;;
14900;SDS011;7542;49.078;9.194;2023-03-11T21:46:36;2.40;;;2.30;;
14900;SDS011;7542;49.078;9.194;2023-03-11T21:47:38;2.40;;;2.20;;
14900;SDS011;7542;49.078;9.194;2023-03-11T21:48:40;2.57;;;2.37;;
14900;SDS011;7542;49.078;9.194;2023-03-11T21:49:42;2.20;;;2.10;;
14900;SDS011;7542;49.078;9.194;2023-03-11T21:50:45;2.20;;;2.10;;
14900;SDS011;7542;49.078;9.194;2023-03-11T21:51:48;2.25;;;2.20;;
14900;SDS011;7542;49.078;9.194;2023-03-11T21:52:50;2.37;;;2.27;;
14900;SDS011;7542;49.078;9.194;2023-03-11T21:53:52;2.67;;;2.13;;
14900;SDS011;7542;49.078;9.194;2023-03-11T21:54:54;2.30;;;2.20;;
14900;SDS011;7542;49.078;9.194;2023-03-11T21:55:56;2.20;;;2.10;;
14900;SDS011;7542;49.078;9.194;2023-03-11T21:56:59;2.40;;;2.30;;